Terminal Aerodrome Forecast
Issued by NWS Cleveland, OH

Home | Current Version | Previous Version | Graphics & Text | Print | Product List | Glossary Off
Versions: 1 2 3 4 5 6 7 8 9 10 11 12 13 14 15 16 17 18 19 20 21

642
FTUS41 KCLE 302337
TAFYNG
TAF
KYNG 302337Z 3100/3124 10005KT P6SM BKN150
     FM310500 13003KT 5SM BR SCT150
     FM310900 15003KT 2SM BR OVC005
     FM311500 22005KT P6SM BKN010
     FM311700 24007KT P6SM BKN040
     FM311900 30007KT P6SM BKN050=

USA.gov is the U.S. government's official web portal to all federal, state and local government web resources and services.